createdAt,value
2022-08-07T00:03:38.708Z,1026.7
2022-08-07T00:18:34.751Z,1026.7
2022-08-07T00:33:32.729Z,1026.5
2022-08-07T00:48:31.150Z,1026.4
2022-08-07T01:03:25.498Z,1026.3
2022-08-07T01:18:19.168Z,1026.2
2022-08-07T01:33:15.053Z,1026.2
2022-08-07T01:48:17.035Z,1026.3
2022-08-07T02:03:12.684Z,1026.3
2022-08-07T02:18:03.845Z,1026.3
2022-08-07T02:33:00.317Z,1026.3
2022-08-07T02:47:55.486Z,1026.3
2022-08-07T03:02:54.072Z,1026.2
2022-08-07T03:17:52.757Z,1026.2
2022-08-07T03:32:46.062Z,1026.1
2022-08-07T03:47:44.988Z,1026.1
2022-08-07T04:02:36.351Z,1026.2
2022-08-07T04:18:31.696Z,1026.2
2022-08-07T04:32:34.200Z,1026.2
2022-08-07T04:47:56.856Z,1026.3
2022-08-07T05:02:20.565Z,1026.5
2022-08-07T05:17:17.499Z,1026.6
2022-08-07T05:32:12.798Z,1026.6
2022-08-07T05:47:18.442Z,1026.6
2022-08-07T06:02:06.096Z,1026.6
2022-08-07T06:17:02.176Z,1026.7
2022-08-07T06:31:58.447Z,1026.6
2022-08-07T06:47:00.176Z,1026.5
2022-08-07T07:01:52.055Z,1026.3
2022-08-07T07:16:49.714Z,1026.3
2022-08-07T07:31:46.719Z,1026.2
2022-08-07T07:46:54.082Z,1026.1
2022-08-07T08:02:01.473Z,1025.9
2022-08-07T08:16:35.578Z,1025.9
2022-08-07T08:31:59.468Z,1025.7
2022-08-07T08:46:29.343Z,1025.5
2022-08-07T09:01:29.511Z,1025.3
2022-08-07T09:16:26.931Z,1025.3
2022-08-07T09:31:20.538Z,1025.1
2022-08-07T09:47:26.807Z,1024.9
2022-08-07T10:01:50.246Z,1024.7
2022-08-07T10:16:12.024Z,1024.6
2022-08-07T10:31:10.889Z,1024.4
2022-08-07T10:46:05.850Z,1024.3
2022-08-07T11:01:02.678Z,1024.1
2022-08-07T11:15:59.267Z,1024
2022-08-07T11:30:55.846Z,1023.9
2022-08-07T11:45:53.228Z,1023.6
2022-08-07T12:00:48.848Z,1023.6
2022-08-07T12:15:58.097Z,1023.5
2022-08-07T12:30:41.380Z,1023.4
2022-08-07T12:45:38.109Z,1023.3
2022-08-07T13:00:34.652Z,1023.2
2022-08-07T13:15:31.783Z,1023
2022-08-07T13:30:39.719Z,1023
2022-08-07T13:46:07.728Z,1022.8
2022-08-07T14:00:26.089Z,1022.7
2022-08-07T14:15:14.330Z,1022.5
2022-08-07T14:30:11.476Z,1022.3
2022-08-07T14:45:21.023Z,1022.2
2022-08-07T15:14:58.299Z,1022
2022-08-07T15:30:03.978Z,1021.8
2022-08-07T15:44:51.637Z,1021.8
2022-08-07T15:59:46.417Z,1021.7
2022-08-07T16:14:42.542Z,1021.6
2022-08-07T16:30:09.460Z,1021.5
2022-08-07T16:44:54.123Z,1021.5
2022-08-07T16:59:46.495Z,1021.5
2022-08-07T17:14:27.631Z,1021.5
2022-08-07T17:30:13.667Z,1021.4
2022-08-07T17:44:33.441Z,1021.5
2022-08-07T17:59:16.949Z,1021.5
2022-08-07T18:14:11.425Z,1021.5
2022-08-07T18:30:04.739Z,1021.6
2022-08-07T18:44:03.612Z,1021.9
2022-08-07T18:58:59.531Z,1022.1
2022-08-07T19:13:55.240Z,1022.3
2022-08-07T19:29:03.693Z,1022.5
2022-08-07T19:43:50.446Z,1022.7
2022-08-07T19:58:44.893Z,1022.9
2022-08-07T20:13:41.877Z,1023
2022-08-07T20:28:34.919Z,1023.1
2022-08-07T20:43:30.511Z,1023
2022-08-07T20:58:28.236Z,1023.2
2022-08-07T22:13:08.985Z,1023.6
2022-08-07T22:28:08.209Z,1023.6
2022-08-07T22:42:59.066Z,1023.7
2022-08-07T22:57:54.998Z,1023.7
2022-08-07T23:12:51.246Z,1023.7
2022-08-07T23:28:20.990Z,1023.8
2022-08-07T23:42:43.309Z,1023.9
2022-08-07T23:57:39.012Z,1024
